Time;durP1;ratioP1;P1;durP2;ratioP2;P2;SDS_P1;SDS_P2;PMS_P1;PMS_P2;Temp;Humidity;BMP_temperature;BMP_pressure;BME280_temperature;BME280_humidity;BME280_pressure;Samples;Min_cycle;Max_cycle;Signal;HPM_P1;HPM_P2
2022/11/21 00:02:00;;;;;;;24.92;14.57;;;;;;;3.42;100.00;98113.22;4985544;28;20051;-84
2022/11/21 00:04:45;;;;;;;23.80;13.48;;;;;;;3.33;100.00;98114.50;4994548;28;20125;-86
2022/11/21 00:07:30;;;;;;;22.52;11.85;;;;;;;3.38;100.00;98103.91;4997100;28;20046;-85
2022/11/21 00:10:15;;;;;;;17.98;9.77;;;;;;;3.49;100.00;98108.59;4982122;28;20042;-85
2022/11/21 00:13:03;;;;;;;15.13;8.07;;;;;;;3.49;100.00;98100.81;4978150;28;20043;-83
2022/11/21 00:15:50;;;;;;;15.32;8.32;;;;;;;3.55;100.00;98092.72;4994777;28;20543;-86
2022/11/21 00:18:35;;;;;;;11.02;6.10;;;;;;;3.62;100.00;98098.44;4997434;28;20053;-83
2022/11/21 00:21:19;;;;;;;9.50;5.30;;;;;;;3.73;100.00;98103.06;4993308;28;20467;-83
2022/11/21 00:24:05;;;;;;;10.05;6.05;;;;;;;3.78;100.00;98103.69;4992934;28;20039;-83
2022/11/21 00:26:49;;;;;;;13.23;6.90;;;;;;;3.84;100.00;98104.25;4980574;28;20502;-85
2022/11/21 00:29:34;;;;;;;11.20;6.32;;;;;;;3.92;100.00;98100.38;4991321;28;20092;-84
2022/11/21 00:32:19;;;;;;;15.10;8.05;;;;;;;3.82;100.00;98101.75;4975255;28;20057;-86
2022/11/21 00:35:05;;;;;;;15.65;8.80;;;;;;;3.64;100.00;98106.13;4958230;28;20169;-83
2022/11/21 00:37:49;;;;;;;7.63;3.88;;;;;;;3.65;100.00;98103.47;4955361;28;20481;-84
2022/11/21 00:40:34;;;;;;;7.47;4.32;;;;;;;3.61;100.00;98099.34;4943469;28;20078;-80
2022/11/21 00:43:19;;;;;;;9.60;5.32;;;;;;;3.64;100.00;98096.59;4948826;28;20367;-81
2022/11/21 00:46:03;;;;;;;7.03;4.20;;;;;;;3.62;100.00;98095.84;4967959;28;20042;-83
2022/11/21 00:48:48;;;;;;;8.35;4.90;;;;;;;3.64;100.00;98090.59;4942475;28;20400;-84
2022/11/21 00:51:36;;;;;;;10.52;6.03;;;;;;;3.57;100.00;98082.28;4954454;28;20042;-83
2022/11/21 00:54:20;;;;;;;13.52;8.13;;;;;;;3.50;100.00;98078.31;4971908;28;20073;-84
2022/11/21 00:57:05;;;;;;;17.27;9.23;;;;;;;3.32;100.00;98089.53;4958391;28;20057;-85
2022/11/21 00:59:49;;;;;;;25.92;14.10;;;;;;;3.01;100.00;98085.84;4941132;28;20134;-85
2022/11/21 01:02:35;;;;;;;25.10;13.25;;;;;;;2.49;100.00;98083.97;4939717;28;20074;-84
2022/11/21 01:05:20;;;;;;;27.00;14.35;;;;;;;2.32;100.00;98076.09;4943557;28;20046;-85
2022/11/21 01:08:05;;;;;;;19.75;12.20;;;;;;;2.35;100.00;98077.69;4941078;28;20099;-84
2022/11/21 01:10:49;;;;;;;22.75;12.15;;;;;;;2.44;100.00;98066.09;4988767;28;20116;-84
2022/11/21 01:13:35;;;;;;;18.75;9.82;;;;;;;2.53;100.00;98063.06;4978607;28;20038;-85
2022/11/21 01:16:22;;;;;;;16.63;9.27;;;;;;;2.66;100.00;98071.09;4980311;28;20043;-84
2022/11/21 01:19:07;;;;;;;16.83;10.05;;;;;;;2.81;100.00;98066.94;4981038;28;20077;-84
2022/11/21 01:21:51;;;;;;;17.55;10.05;;;;;;;2.78;100.00;98063.66;5002072;28;20044;-84
2022/11/21 01:24:36;;;;;;;21.55;11.57;;;;;;;2.71;100.00;98058.78;4991397;28;20176;-85
2022/11/21 01:27:21;;;;;;;28.13;14.40;;;;;;;2.55;100.00;98061.25;4978749;28;20076;-85
2022/11/21 01:30:06;;;;;;;56.25;20.75;;;;;;;1.54;100.00;98082.06;4980092;28;20133;-84
2022/11/21 01:32:51;;;;;;;48.55;21.42;;;;;;;1.20;100.00;98094.63;4977761;28;20397;-84
2022/11/21 01:35:36;;;;;;;45.22;21.80;;;;;;;1.40;100.00;98084.38;4977123;28;20046;-83
2022/11/21 01:38:22;;;;;;;39.83;21.08;;;;;;;1.58;100.00;98075.84;4978354;28;20038;-85
2022/11/21 01:41:08;;;;;;;45.13;21.10;;;;;;;1.50;100.00;98070.19;4964949;28;20056;-87
2022/11/21 01:43:52;;;;;;;41.55;22.17;;;;;;;1.56;100.00;98061.34;4965436;28;20042;-83
2022/11/21 01:46:38;;;;;;;35.63;19.92;;;;;;;1.77;100.00;98059.56;4979281;28;20095;-83
2022/11/21 01:49:31;;;;;;;38.85;19.92;;;;;;;1.92;100.00;98055.47;4977015;28;20048;-83
2022/11/21 01:52:30;;;;;;;54.60;25.23;;;;;;;1.92;100.00;98059.81;4963833;28;20042;-86
2022/11/21 01:55:14;;;;;;;68.20;27.75;;;;;;;1.65;100.00;98042.84;4959724;28;20045;-84
2022/11/21 01:58:00;;;;;;;63.22;28.33;;;;;;;1.59;100.00;98053.47;4972544;28;20038;-84
2022/11/21 02:00:46;;;;;;;72.40;28.85;;;;;;;1.53;100.00;98045.97;4975822;28;20054;-86
2022/11/21 02:03:37;;;;;;;67.53;27.90;;;;;;;1.26;100.00;98034.16;4975126;28;20047;-89
2022/11/21 02:06:24;;;;;;;75.82;25.35;;;;;;;1.16;100.00;98030.31;4957911;28;20046;-84
2022/11/21 02:09:09;;;;;;;76.63;28.15;;;;;;;1.25;100.00;98017.03;4948234;28;20538;-86
2022/11/21 02:11:59;;;;;;;66.88;26.80;;;;;;;1.19;100.00;98022.44;4930480;28;20039;-83
2022/11/21 02:14:44;;;;;;;73.72;26.20;;;;;;;1.10;100.00;98028.81;4972132;28;20449;-84
2022/11/21 02:17:29;;;;;;;62.05;25.48;;;;;;;1.05;100.00;98025.59;4954869;28;20127;-85
2022/11/21 02:20:16;;;;;;;68.88;26.75;;;;;;;0.93;100.00;98024.38;4930008;28;20050;-84
2022/11/21 02:23:01;;;;;;;67.65;26.58;;;;;;;0.89;100.00;98017.63;4950702;28;20053;-85
2022/11/21 02:25:45;;;;;;;68.50;27.88;;;;;;;0.73;100.00;98015.69;4945964;28;20050;-84
2022/11/21 02:28:30;;;;;;;56.10;25.95;;;;;;;0.75;100.00;98013.06;4940224;28;20178;-84
2022/11/21 02:31:15;;;;;;;88.32;29.80;;;;;;;0.69;100.00;98009.81;4930923;28;20571;-83
2022/11/21 02:33:59;;;;;;;71.38;26.13;;;;;;;0.56;100.00;98004.31;4931400;28;20046;-84
2022/11/21 02:36:46;;;;;;;69.10;23.77;;;;;;;0.56;100.00;98004.31;4936282;28;20112;-85
2022/11/21 02:39:36;;;;;;;49.67;23.90;;;;;;;0.88;100.00;98003.91;4973002;28;20092;-85
2022/11/21 02:42:44;;;;;;;58.38;22.02;;;;;;;0.83;100.00;98000.69;4974002;28;20053;-85
2022/11/21 02:45:49;;;;;;;43.90;20.17;;;;;;;0.70;100.00;98010.66;4968521;28;20058;-83
2022/11/21 02:48:36;;;;;;;45.30;19.40;;;;;;;0.76;100.00;98013.00;4916426;29;20065;-84
2022/11/21 02:51:20;;;;;;;46.13;19.70;;;;;;;0.78;100.00;98008.63;4924885;29;20059;-84
2022/11/21 02:54:05;;;;;;;46.97;20.05;;;;;;;0.77;100.00;98011.25;4934052;29;20058;-86
2022/11/21 02:56:50;;;;;;;35.15;18.55;;;;;;;0.79;100.00;98023.19;4907713;29;20440;-85
2022/11/21 02:59:34;;;;;;;34.03;17.63;;;;;;;1.09;100.00;98011.66;4924298;29;20062;-84
2022/11/21 03:02:19;;;;;;;43.05;19.58;;;;;;;1.40;100.00;97994.03;4919282;29;20642;-86
2022/11/21 03:05:06;;;;;;;55.17;20.50;;;;;;;1.27;100.00;97994.56;4930130;29;20051;-86
2022/11/21 03:07:50;;;;;;;45.35;21.85;;;;;;;1.38;100.00;97981.19;4949843;28;20052;-85
2022/11/21 03:10:36;;;;;;;47.58;21.23;;;;;;;1.34;100.00;97985.66;4931452;29;20069;-85
2022/11/21 03:13:20;;;;;;;67.80;23.23;;;;;;;1.18;100.00;97988.06;4931003;29;20123;-85
2022/11/21 03:16:05;;;;;;;70.18;26.33;;;;;;;1.00;100.00;97994.00;4920931;29;20047;-85
2022/11/21 03:18:49;;;;;;;56.75;24.20;;;;;;;0.86;100.00;97998.78;4917243;29;20099;-85
2022/11/21 03:21:34;;;;;;;64.03;22.65;;;;;;;1.05;100.00;97990.31;4922368;29;20041;-82
2022/11/21 03:24:20;;;;;;;93.85;22.77;;;;;;;0.91;100.00;97997.78;4934439;28;20118;-83
2022/11/21 03:27:05;;;;;;;47.22;17.48;;;;;;;0.79;100.00;97994.81;4980846;28;20126;-84
2022/11/21 03:29:50;;;;;;;34.75;17.90;;;;;;;1.06;100.00;97993.75;4964260;28;20046;-85
2022/11/21 03:32:35;;;;;;;38.17;17.50;;;;;;;1.16;100.00;97991.59;4991932;28;20125;-84
2022/11/21 03:35:19;;;;;;;34.42;16.35;;;;;;;0.96;100.00;97995.88;4975810;28;20441;-84
2022/11/21 03:38:04;;;;;;;32.40;17.10;;;;;;;0.94;100.00;97997.66;4988215;28;20053;-83
2022/11/21 03:40:49;;;;;;;31.00;14.82;;;;;;;0.81;100.00;98005.91;4990883;28;20108;-84
2022/11/21 03:43:34;;;;;;;28.15;14.80;;;;;;;0.86;100.00;98003.94;4990089;28;20069;-86
2022/11/21 03:46:18;;;;;;;27.70;15.02;;;;;;;0.90;100.00;97998.69;4966105;28;20043;-82
2022/11/21 03:49:04;;;;;;;35.30;15.52;;;;;;;0.86;100.00;97992.81;4979846;28;20057;-85
2022/11/21 03:51:49;;;;;;;30.67;15.02;;;;;;;1.02;100.00;97992.16;4982422;28;20047;-84
2022/11/21 03:54:35;;;;;;;31.38;15.07;;;;;;;1.20;100.00;97999.16;5008520;28;20057;-86
2022/11/21 03:57:20;;;;;;;31.10;15.75;;;;;;;1.37;100.00;97995.03;4978753;28;20046;-83
2022/11/21 04:00:05;;;;;;;31.92;15.27;;;;;;;1.44;100.00;97990.41;4978213;28;20602;-84
2022/11/21 04:02:50;;;;;;;29.92;15.45;;;;;;;1.45;100.00;97989.50;4989553;28;20050;-84
2022/11/21 04:05:35;;;;;;;36.22;16.50;;;;;;;1.42;100.00;97987.88;4978776;28;20129;-84
2022/11/21 04:08:21;;;;;;;41.45;18.08;;;;;;;1.14;100.00;97989.09;4989914;28;20088;-84
2022/11/21 04:11:06;;;;;;;39.60;18.52;;;;;;;0.96;100.00;97981.19;4995232;28;20097;-81
2022/11/21 04:13:51;;;;;;;38.90;18.33;;;;;;;1.08;100.00;97984.16;4978529;28;20050;-84
2022/11/21 04:16:37;;;;;;;39.03;18.27;;;;;;;1.06;100.00;97986.81;4981463;28;20046;-83
2022/11/21 04:19:22;;;;;;;49.10;19.10;;;;;;;1.33;100.00;97983.13;4981816;28;20050;-83
2022/11/21 04:22:07;;;;;;;35.75;16.65;;;;;;;1.47;100.00;97978.19;4985922;28;20038;-85
2022/11/21 04:24:52;;;;;;;37.72;18.45;;;;;;;1.43;100.00;97978.41;4997382;28;20058;-85
2022/11/21 04:27:37;;;;;;;38.50;16.65;;;;;;;1.34;100.00;97974.47;4982249;28;20124;-85
2022/11/21 04:30:22;;;;;;;47.22;19.17;;;;;;;1.06;100.00;97976.50;4981602;28;20125;-85
2022/11/21 04:33:07;;;;;;;44.42;15.38;;;;;;;0.79;100.00;97981.06;4983553;28;20116;-85
2022/11/21 04:35:52;;;;;;;39.72;13.48;;;;;;;0.72;100.00;97978.75;4960499;28;20526;-85
2022/11/21 04:38:36;;;;;;;36.47;13.75;;;;;;;0.71;100.00;97971.06;4961160;28;20141;-85
2022/11/21 04:41:21;;;;;;;41.90;12.98;;;;;;;0.73;100.00;97969.28;4955625;28;20577;-84
2022/11/21 04:44:06;;;;;;;27.75;13.50;;;;;;;0.89;100.00;97969.47;4956624;28;20589;-85
2022/11/21 04:46:52;;;;;;;28.25;12.40;;;;;;;0.98;100.00;97981.13;4948127;28;20059;-86
2022/11/21 04:49:38;;;;;;;26.42;11.70;;;;;;;0.59;100.00;97985.28;4929775;28;20881;-85
2022/11/21 04:52:23;;;;;;;25.60;11.68;;;;;;;0.45;100.00;97988.44;4974230;28;20042;-85
2022/11/21 04:55:10;;;;;;;25.55;10.75;;;;;;;0.45;100.00;97985.84;4958945;28;20043;-83
2022/11/21 04:57:55;;;;;;;20.80;11.30;;;;;;;0.41;100.00;97989.47;4947667;28;20043;-85
2022/11/21 05:00:42;;;;;;;19.80;10.15;;;;;;;0.61;100.00;97989.50;4937045;29;20125;-86
2022/11/21 05:03:27;;;;;;;24.40;9.30;;;;;;;0.49;100.00;97997.69;4918819;29;20174;-84
2022/11/21 05:06:11;;;;;;;14.98;9.65;;;;;;;0.57;100.00;97997.41;4929479;29;20662;-84
2022/11/21 05:08:56;;;;;;;16.35;9.27;;;;;;;0.64;100.00;98001.41;4931953;29;20143;-82
2022/11/21 05:14:45;;;;;;;16.15;7.40;;;;;;;1.13;100.00;97997.72;4944820;28;20049;-83
2022/11/21 05:17:29;;;;;;;15.30;8.07;;;;;;;1.43;100.00;97999.91;4954251;28;20045;-85
2022/11/21 05:20:14;;;;;;;14.27;8.18;;;;;;;1.23;100.00;98016.25;4953594;28;20150;-83
2022/11/21 05:22:59;;;;;;;13.80;7.88;;;;;;;1.22;100.00;98017.97;4952879;28;20356;-83
2022/11/21 05:25:44;;;;;;;13.25;7.90;;;;;;;1.13;100.00;98030.44;4943462;28;20133;-83
2022/11/21 05:28:29;;;;;;;12.65;7.82;;;;;;;0.99;100.00;98034.44;4939232;28;20482;-85
2022/11/21 05:31:13;;;;;;;13.48;7.53;;;;;;;0.98;100.00;98027.56;4952515;28;20050;-83
2022/11/21 05:33:58;;;;;;;14.30;7.88;;;;;;;0.98;100.00;98036.16;4951836;28;20051;-82
2022/11/21 05:36:42;;;;;;;15.27;7.80;;;;;;;1.06;100.00;98042.75;4931701;28;20078;-83
2022/11/21 05:39:27;;;;;;;14.10;7.57;;;;;;;1.28;100.00;98032.38;4960530;28;20038;-83
2022/11/21 05:42:12;;;;;;;25.58;9.00;;;;;;;1.28;100.00;98036.69;4964172;28;20569;-84
2022/11/21 05:44:57;;;;;;;17.17;7.88;;;;;;;1.81;100.00;98037.84;4980665;28;20046;-84
2022/11/21 05:47:42;;;;;;;16.00;8.50;;;;;;;1.53;100.00;98033.06;4974466;28;20042;-82
2022/11/21 05:50:27;;;;;;;16.65;9.38;;;;;;;1.57;100.00;98025.13;4976634;28;20438;-82
2022/11/21 05:53:12;;;;;;;17.92;9.68;;;;;;;1.25;100.00;98024.75;4976711;28;20120;-79
2022/11/21 05:56:24;;;;;;;26.23;10.77;;;;;;;1.22;100.00;98019.72;4968313;28;20132;-79
2022/11/21 05:59:10;;;;;;;24.02;12.00;;;;;;;1.94;100.00;98021.81;4975200;28;20116;-83
2022/11/21 06:04:58;;;;;;;24.95;11.07;;;;;;;1.76;100.00;98014.00;4974013;28;20049;-83
2022/11/21 06:07:46;;;;;;;21.67;11.32;;;;;;;1.35;100.00;98014.88;4990225;28;20031;-84
2022/11/21 06:10:39;;;;;;;26.88;12.57;;;;;;;1.52;100.00;98006.41;4968149;28;20091;-85
2022/11/21 06:13:26;;;;;;;23.10;10.85;;;;;;;1.41;100.00;98001.72;4991454;28;20121;-84
2022/11/21 06:16:19;;;;;;;20.77;10.48;;;;;;;1.46;100.00;97989.44;4988665;28;20575;-84
2022/11/21 06:19:06;;;;;;;24.58;10.85;;;;;;;1.38;100.00;97986.34;4985653;28;20157;-85
2022/11/21 06:21:51;;;;;;;17.90;10.15;;;;;;;1.26;100.00;97986.91;4968319;28;20046;-83
2022/11/21 06:24:36;;;;;;;20.25;9.70;;;;;;;1.06;100.00;97989.41;4946146;28;20141;-85
2022/11/21 06:27:24;;;;;;;18.13;9.60;;;;;;;0.78;100.00;97982.81;4976305;28;20066;-84
2022/11/21 06:30:10;;;;;;;16.65;9.32;;;;;;;0.78;100.00;97982.81;4969276;28;20081;-84
2022/11/21 06:32:54;;;;;;;29.73;9.13;;;;;;;0.68;100.00;97977.19;4989260;28;20042;-84
2022/11/21 06:35:41;;;;;;;20.02;9.13;;;;;;;0.56;100.00;97980.25;4988667;28;20042;-84
2022/11/21 06:38:27;;;;;;;29.48;12.90;;;;;;;0.72;100.00;97973.59;4962881;28;20054;-83
2022/11/21 06:41:18;;;;;;;18.38;10.02;;;;;;;0.68;100.00;97976.34;4975180;28;20042;-83
2022/11/21 06:44:03;;;;;;;26.92;10.10;;;;;;;0.67;100.00;97969.53;4974567;28;20042;-85
2022/11/21 06:46:48;;;;;;;19.10;10.02;;;;;;;0.86;100.00;97988.47;4987216;28;20433;-84
2022/11/21 06:49:33;;;;;;;14.57;8.93;;;;;;;1.08;100.00;97974.69;4972036;28;20114;-85
2022/11/21 06:52:18;;;;;;;22.00;10.60;;;;;;;1.04;100.00;97973.16;4961299;28;20115;-83
2022/11/21 06:55:05;;;;;;;19.00;10.45;;;;;;;1.00;100.00;97983.69;4993246;28;20105;-83
2022/11/21 06:57:50;;;;;;;19.33;12.02;;;;;;;0.89;100.00;97984.94;4964378;28;20564;-85
2022/11/21 07:00:35;;;;;;;18.45;10.90;;;;;;;0.92;100.00;97981.41;4968142;28;20170;-84
2022/11/21 07:03:22;;;;;;;17.23;10.27;;;;;;;1.04;100.00;97980.91;4994892;28;20109;-84
2022/11/21 07:06:07;;;;;;;18.60;9.98;;;;;;;0.76;100.00;97987.19;4984456;28;20157;-84
2022/11/21 07:08:53;;;;;;;19.38;10.18;;;;;;;0.90;100.00;97988.38;4968047;28;20131;-83
2022/11/21 07:11:38;;;;;;;14.57;8.65;;;;;;;0.86;100.00;97987.66;4981232;28;20035;-85
2022/11/21 07:14:24;;;;;;;15.23;8.90;;;;;;;0.59;100.00;97993.03;4983296;28;20054;-83
2022/11/21 07:17:13;;;;;;;14.70;7.90;;;;;;;0.45;100.00;97989.28;4982815;28;20038;-84
2022/11/21 07:19:58;;;;;;;14.57;8.38;;;;;;;0.66;100.00;97991.03;4984157;28;20039;-83
2022/11/21 07:22:42;;;;;;;13.40;8.85;;;;;;;1.06;100.00;97976.50;4992480;28;20053;-86
2022/11/21 07:25:27;;;;;;;12.27;7.72;;;;;;;0.93;100.00;97998.56;4999750;28;20053;-84
2022/11/21 07:28:12;;;;;;;18.35;11.05;;;;;;;0.63;100.00;97986.00;4987680;28;20041;-83
2022/11/21 07:30:58;;;;;;;15.10;9.75;;;;;;;0.77;100.00;97990.63;4985419;28;20619;-84
2022/11/21 07:33:42;;;;;;;19.13;10.73;;;;;;;1.04;100.00;97991.22;4986579;28;20058;-83
2022/11/21 07:36:28;;;;;;;16.35;9.50;;;;;;;1.21;100.00;97982.75;4969332;28;20042;-84
2022/11/21 07:39:13;;;;;;;20.08;11.40;;;;;;;1.35;100.00;97982.16;4967015;28;20518;-85
2022/11/21 07:41:59;;;;;;;17.77;10.85;;;;;;;1.31;100.00;97988.38;4995314;28;20244;-84
2022/11/21 07:44:45;;;;;;;22.48;12.68;;;;;;;1.09;100.00;97980.72;4995071;28;20038;-85
2022/11/21 07:47:33;;;;;;;20.83;11.77;;;;;;;1.22;100.00;97983.59;4956857;28;20081;-85
2022/11/21 07:50:19;;;;;;;21.05;11.27;;;;;;;0.90;100.00;97983.22;4957129;28;20450;-85
2022/11/21 07:53:06;;;;;;;16.67;11.07;;;;;;;0.99;100.00;97969.94;4933770;28;20043;-83
2022/11/21 07:55:52;;;;;;;17.08;10.65;;;;;;;1.10;100.00;97967.75;4949504;28;20122;-84
2022/11/21 07:58:37;;;;;;;15.63;10.73;;;;;;;1.59;100.00;97963.94;4946026;28;20043;-84
2022/11/21 08:01:21;;;;;;;24.02;13.73;;;;;;;1.60;100.00;97960.44;4949404;28;20057;-82
2022/11/21 08:04:06;;;;;;;18.83;12.45;;;;;;;1.66;100.00;97953.31;4948426;28;20185;-82
2022/11/21 08:06:51;;;;;;;19.10;12.15;;;;;;;1.52;100.00;97962.50;4989913;28;20149;-82
2022/11/21 08:09:36;;;;;;;18.48;11.68;;;;;;;1.86;100.00;97952.41;4930118;28;20082;-84
2022/11/21 08:12:21;;;;;;;18.63;11.23;;;;;;;1.91;100.00;97954.78;4934328;28;20074;-84
2022/11/21 08:15:07;;;;;;;16.65;10.15;;;;;;;2.35;100.00;97958.75;4944601;28;20042;-83
2022/11/21 08:17:51;;;;;;;17.52;11.77;;;;;;;2.62;100.00;97942.00;4936701;28;20055;-84
2022/11/21 08:20:37;;;;;;;17.80;10.75;;;;;;;2.55;100.00;97960.41;4917893;29;20048;-85
2022/11/21 08:23:21;;;;;;;15.63;9.98;;;;;;;3.22;100.00;97952.84;4921603;29;20467;-84
2022/11/21 08:26:08;;;;;;;17.00;10.48;;;;;;;3.43;100.00;97961.25;4919816;28;20528;-85
2022/11/21 08:28:55;;;;;;;16.02;10.38;;;;;;;3.60;100.00;97955.19;4934602;28;20110;-86
2022/11/21 08:31:41;;;;;;;24.55;13.65;;;;;;;3.89;100.00;97959.72;4909864;29;20074;-85
2022/11/21 08:34:30;;;;;;;17.42;11.45;;;;;;;3.83;100.00;97950.53;4921169;29;20063;-85
2022/11/21 08:37:16;;;;;;;17.58;10.63;;;;;;;3.74;100.00;97948.47;4950419;28;20059;-84
2022/11/21 08:40:01;;;;;;;16.30;10.55;;;;;;;3.85;100.00;97943.53;4960502;28;20054;-85
2022/11/21 08:42:46;;;;;;;14.93;9.43;;;;;;;3.96;100.00;97958.50;4968230;28;20051;-84
2022/11/21 08:45:32;;;;;;;13.20;8.52;;;;;;;4.19;100.00;97962.41;4943031;28;20058;-86
2022/11/21 08:48:18;;;;;;;13.10;7.97;;;;;;;3.88;100.00;97966.69;4962916;28;20626;-87
2022/11/21 08:51:03;;;;;;;12.35;7.47;;;;;;;3.81;100.00;97967.94;4977770;28;20074;-85
2022/11/21 08:53:49;;;;;;;10.45;7.05;;;;;;;3.98;100.00;97973.97;4979338;28;20054;-87
2022/11/21 08:56:34;;;;;;;9.75;6.82;;;;;;;3.64;100.00;97974.00;4974576;28;20391;-86
2022/11/21 08:59:18;;;;;;;9.80;6.70;;;;;;;3.63;100.00;97965.41;4967500;28;20406;-85
2022/11/21 09:02:03;;;;;;;10.02;6.50;;;;;;;3.64;100.00;97966.25;4975223;28;20066;-89
2022/11/21 09:04:47;;;;;;;9.32;5.72;;;;;;;3.63;100.00;97968.00;4964500;28;20089;-84
2022/11/21 09:07:33;;;;;;;8.98;5.82;;;;;;;3.61;100.00;97969.00;4958804;28;20442;-84
2022/11/21 09:10:19;;;;;;;7.70;5.43;;;;;;;3.46;100.00;97971.44;4962090;28;20084;-84
2022/11/21 09:13:04;;;;;;;8.25;5.05;;;;;;;3.64;100.00;97961.88;4977311;28;20329;-85
2022/11/21 09:19:33;;;;;;;7.88;4.90;;;;;;;3.33;100.00;97964.31;4952604;28;20537;-85
2022/11/21 09:22:18;;;;;;;8.00;5.85;;;;;;;3.12;100.00;97968.03;4979900;28;20048;-84
2022/11/21 09:25:03;;;;;;;9.77;6.03;;;;;;;3.36;100.00;97963.34;4964768;28;20159;-82
2022/11/21 09:27:48;;;;;;;10.35;6.15;;;;;;;3.63;100.00;97960.22;4965909;28;20709;-82
2022/11/21 09:30:34;;;;;;;12.80;6.35;;;;;;;3.43;100.00;97963.84;4996943;28;20785;-83
2022/11/21 09:33:19;;;;;;;9.48;6.53;;;;;;;3.37;100.00;97953.81;4971480;28;20130;-84
2022/11/21 09:36:06;;;;;;;9.10;6.25;;;;;;;3.56;100.00;97959.69;4989585;28;20042;-82
2022/11/21 09:38:51;;;;;;;9.05;6.47;;;;;;;3.80;100.00;97954.13;4962232;28;20069;-85
2022/11/21 09:41:58;;;;;;;8.85;5.78;;;;;;;3.63;100.00;97957.63;4989973;28;20038;-84
2022/11/21 09:44:52;;;;;;;8.80;5.70;;;;;;;3.53;100.00;97949.50;4969967;28;20239;-84
2022/11/21 09:47:44;;;;;;;7.35;5.80;;;;;;;3.55;100.00;97947.69;4963776;28;20034;-84
2022/11/21 09:50:33;;;;;;;7.75;5.07;;;;;;;3.65;100.00;97950.63;4982116;28;20073;-83
2022/11/21 09:53:29;;;;;;;5.85;4.43;;;;;;;3.69;100.00;97943.50;4960676;28;20065;-82
2022/11/21 09:56:18;;;;;;;7.70;5.45;;;;;;;3.45;100.00;97941.28;4963100;28;20561;-81
2022/11/21 09:59:25;;;;;;;10.07;5.00;;;;;;;3.15;100.00;97934.22;4967143;28;20126;-82
2022/11/21 10:02:21;;;;;;;6.40;4.72;;;;;;;3.75;100.00;97945.78;4949564;28;20046;-84
2022/11/21 10:05:12;;;;;;;6.30;4.82;;;;;;;3.65;100.00;97936.81;4973134;28;20042;-84
2022/11/21 10:08:04;;;;;;;6.47;5.13;;;;;;;3.81;100.00;97939.41;4963299;28;20050;-82
2022/11/21 10:10:55;;;;;;;6.53;4.50;;;;;;;3.35;100.00;97940.09;4974119;28;20059;-82
2022/11/21 10:13:58;;;;;;;5.85;4.15;;;;;;;3.37;100.00;97925.31;4947360;28;20134;-83
2022/11/21 10:16:55;;;;;;;4.68;3.90;;;;;;;3.60;100.00;97938.81;4975373;28;20066;-83
2022/11/21 10:20:02;;;;;;;6.05;4.60;;;;;;;3.50;100.00;97934.13;4968553;28;20092;-83
2022/11/21 10:23:01;;;;;;;5.65;3.97;;;;;;;3.68;100.00;97931.47;4955659;28;20081;-84
2022/11/21 10:26:14;;;;;;;6.80;4.55;;;;;;;3.66;100.00;97934.16;4955706;28;20122;-86
2022/11/21 10:29:26;;;;;;;6.18;4.45;;;;;;;3.98;100.00;97933.34;4945842;28;20082;-83
2022/11/21 10:32:23;;;;;;;6.03;4.25;;;;;;;3.82;100.00;97934.16;4965070;28;20038;-84
2022/11/21 10:35:37;;;;;;;6.13;4.10;;;;;;;3.72;100.00;97938.16;4993892;28;20125;-84
2022/11/21 10:38:25;;;;;;;4.82;3.67;;;;;;;3.86;100.00;97923.63;4995096;28;20506;-84
2022/11/21 10:41:24;;;;;;;6.03;3.67;;;;;;;4.09;100.00;97927.56;4995665;28;20074;-83
2022/11/21 10:47:36;;;;;;;4.60;3.65;;;;;;;3.90;100.00;97917.38;4983366;28;20632;-84
2022/11/21 10:50:30;;;;;;;7.80;3.85;;;;;;;3.78;100.00;97919.69;4974914;28;20050;-83
2022/11/21 10:56:26;;;;;;;5.38;4.00;;;;;;;4.09;100.00;97927.56;4992796;28;20169;-84
2022/11/21 10:59:26;;;;;;;5.38;3.92;;;;;;;4.03;100.00;97910.56;4985259;28;20070;-83
2022/11/21 11:02:11;;;;;;;5.85;3.65;;;;;;;4.10;100.00;97915.44;4968249;28;20418;-84
2022/11/21 11:05:19;;;;;;;5.35;4.15;;;;;;;4.31;100.00;97915.97;4993851;28;20038;-84
2022/11/21 11:08:09;;;;;;;5.68;3.83;;;;;;;4.96;100.00;97901.03;4978565;28;20117;-85
2022/11/21 11:11:06;;;;;;;7.57;4.03;;;;;;;5.16;100.00;97909.38;4988493;28;20045;-85
2022/11/21 11:14:05;;;;;;;5.78;3.97;;;;;;;4.68;100.00;97913.03;4980850;28;20043;-85
2022/11/21 11:16:50;;;;;;;6.47;4.28;;;;;;;4.18;100.00;97910.63;4962735;28;20061;-85
2022/11/21 11:19:35;;;;;;;6.63;4.82;;;;;;;3.74;100.00;97913.00;4973841;28;20058;-84
2022/11/21 11:22:27;;;;;;;5.47;4.15;;;;;;;3.67;100.00;97916.84;4978096;28;20034;-84
2022/11/21 11:25:13;;;;;;;6.85;4.10;;;;;;;3.98;100.00;97915.19;4999429;28;20034;-85
2022/11/21 11:28:05;;;;;;;5.32;3.63;;;;;;;4.96;100.00;97910.59;4999489;28;20038;-84
2022/11/21 11:30:53;;;;;;;4.47;3.58;;;;;;;4.94;100.00;97913.28;4997362;28;20045;-86
2022/11/21 11:33:48;;;;;;;5.05;3.85;;;;;;;4.93;100.00;97899.44;4981617;28;20046;-85
2022/11/21 11:36:44;;;;;;;5.88;3.97;;;;;;;4.29;100.00;97910.88;4969636;28;20052;-84
2022/11/21 11:39:39;;;;;;;5.22;3.50;;;;;;;4.86;100.00;97905.09;4976700;28;20038;-84
2022/11/21 11:49:09;;;;;;;4.97;3.60;;;;;;;6.55;94.08;97902.59;5000169;28;20137;-84
2022/11/21 11:51:58;;;;;;;5.03;3.65;;;;;;;6.51;94.10;97905.41;4967538;28;20065;-87
2022/11/21 11:54:51;;;;;;;3.53;2.92;;;;;;;7.41;90.72;97902.13;4994088;28;20070;-84
2022/11/21 11:57:37;;;;;;;5.88;4.32;;;;;;;8.44;87.11;97902.72;4968998;28;20045;-85
2022/11/21 12:00:39;;;;;;;4.15;2.90;;;;;;;9.32;80.31;97891.91;4972522;28;20046;-85
2022/11/21 12:03:59;;;;;;;4.55;3.10;;;;;;;9.72;79.61;97896.63;4992552;28;20038;-88
2022/11/21 12:07:06;;;;;;;3.67;2.97;;;;;;;9.20;77.98;97889.28;4972855;28;20133;-86
2022/11/21 12:10:00;;;;;;;4.45;2.90;;;;;;;8.99;80.55;97884.72;4978943;28;20039;-86
2022/11/21 12:12:51;;;;;;;3.78;2.75;;;;;;;8.97;80.92;97888.41;4982192;28;20174;-84
2022/11/21 12:15:48;;;;;;;4.78;3.33;;;;;;;8.25;82.39;97897.09;4969709;28;20054;-86
2022/11/21 12:18:44;;;;;;;3.88;2.95;;;;;;;7.93;86.28;97895.00;4994996;28;20066;-85
2022/11/21 12:21:35;;;;;;;6.63;3.63;;;;;;;7.95;86.40;97895.72;4981214;28;20042;-86
2022/11/21 12:24:28;;;;;;;5.15;3.40;;;;;;;7.99;87.41;97889.38;4983369;28;20565;-86
2022/11/21 12:27:39;;;;;;;5.82;3.60;;;;;;;7.91;86.70;97896.06;4982715;28;20038;-84
2022/11/21 12:31:10;;;;;;;8.27;3.42;;;;;;;7.67;87.46;97892.47;4969023;28;20042;-84
2022/11/21 12:34:18;;;;;;;4.32;3.22;;;;;;;7.35;90.17;97887.75;4909800;29;20090;-85
2022/11/21 12:37:30;;;;;;;3.45;2.75;;;;;;;7.59;90.36;97884.38;4907686;29;20062;-85
2022/11/21 12:40:35;;;;;;;4.47;2.60;;;;;;;7.20;90.64;97892.22;4937262;29;20130;-85
2022/11/21 12:43:45;;;;;;;5.43;3.25;;;;;;;7.03;92.36;97884.63;4924077;29;20092;-85
2022/11/21 12:46:54;;;;;;;6.10;3.40;;;;;;;6.99;93.48;97893.59;4913489;29;20531;-84
2022/11/21 12:56:53;;;;;;;5.68;3.65;;;;;;;6.38;96.19;97888.97;4910227;29;20048;-84
2022/11/21 12:59:53;;;;;;;4.53;3.28;;;;;;;6.31;97.88;97878.09;4937701;29;20043;-85
2022/11/21 13:02:47;;;;;;;7.70;4.20;;;;;;;6.78;96.30;97882.88;4914600;29;20093;-84
2022/11/21 13:05:36;;;;;;;5.18;3.75;;;;;;;6.70;97.14;97880.78;4902693;29;20147;-84
2022/11/21 13:08:30;;;;;;;4.85;3.20;;;;;;;6.80;96.22;97882.75;4944064;28;20050;-82
2022/11/21 13:14:43;;;;;;;3.83;2.85;;;;;;;6.97;94.83;97881.63;4986537;28;20038;-88
2022/11/21 13:17:30;;;;;;;6.80;4.30;;;;;;;6.95;95.44;97886.97;4998281;28;20119;-83
2022/11/21 13:20:19;;;;;;;4.05;3.08;;;;;;;6.86;95.13;97882.34;4986600;28;20077;-84
2022/11/21 13:23:05;;;;;;;5.88;3.20;;;;;;;6.72;95.85;97888.50;4988554;28;20101;-85
2022/11/21 13:25:51;;;;;;;3.95;2.97;;;;;;;6.67;95.46;97883.59;4980562;28;20500;-83
2022/11/21 13:28:36;;;;;;;4.10;2.90;;;;;;;6.64;95.98;97886.41;4961858;28;20417;-83
2022/11/21 13:31:32;;;;;;;4.72;2.78;;;;;;;6.52;96.54;97882.84;5005050;28;20073;-83
2022/11/21 13:34:44;;;;;;;5.15;3.40;;;;;;;6.56;98.35;97884.28;4980432;28;20049;-87
2022/11/21 13:37:48;;;;;;;7.22;4.30;;;;;;;6.49;99.07;97881.28;4980863;28;20068;-84